createdAt,value
2022-08-07T00:00:03.443Z,2.50
2022-08-07T00:01:44.394Z,2.25
2022-08-07T00:02:40.588Z,2.60
2022-08-07T00:03:47.302Z,2.13
2022-08-07T00:04:49.432Z,3.00
2022-08-07T00:05:53.176Z,2.33
2022-08-07T00:06:55.628Z,2.22
2022-08-07T00:08:03.094Z,2.55
2022-08-07T00:09:16.098Z,2.58
2022-08-07T00:10:26.066Z,2.60
2022-08-07T00:11:30.076Z,2.20
2022-08-07T00:12:34.931Z,2.58
2022-08-07T00:13:46.228Z,2.40
2022-08-07T00:14:48.193Z,2.13
2022-08-07T00:15:51.801Z,3.13
2022-08-07T00:16:53.585Z,2.20
2022-08-07T00:17:55.189Z,2.53
2022-08-07T00:18:56.849Z,2.30
2022-08-07T00:20:02.753Z,2.22
2022-08-07T00:21:08.236Z,2.53
2022-08-07T00:22:35.358Z,2.55
2022-08-07T00:23:39.642Z,2.63
2022-08-07T00:24:43.164Z,2.80
2022-08-07T00:25:58.130Z,2.40
2022-08-07T00:27:07.310Z,2.50
2022-08-07T00:28:10.835Z,2.30
2022-08-07T00:29:12.433Z,2.55
2022-08-07T00:30:26.433Z,2.45
2022-08-07T00:31:37.897Z,2.92
2022-08-07T00:32:43.237Z,2.45
2022-08-07T00:33:47.701Z,2.20
2022-08-07T00:34:50.685Z,2.30
2022-08-07T00:35:53.783Z,2.60
2022-08-07T00:36:55.456Z,2.53
2022-08-07T00:37:57.889Z,2.45
2022-08-07T00:38:59.536Z,2.93
2022-08-07T00:40:02.059Z,2.70
2022-08-07T00:41:04.837Z,2.65
2022-08-07T00:42:11.765Z,2.78
2022-08-07T00:44:01.181Z,3.03
2022-08-07T00:44:41.250Z,2.50
2022-08-07T00:45:46.438Z,2.30
2022-08-07T00:46:48.271Z,2.90
2022-08-07T00:48:05.429Z,2.40
2022-08-07T00:49:10.423Z,2.53
2022-08-07T00:50:50.887Z,2.40
2022-08-07T00:51:56.582Z,2.58
2022-08-07T00:52:59.588Z,2.58
2022-08-07T00:54:01.897Z,2.78
2022-08-07T00:55:05.002Z,2.38
2022-08-07T00:56:14.080Z,2.63
2022-08-07T00:57:16.966Z,2.50
2022-08-07T00:58:19.553Z,2.92
2022-08-07T00:59:35.193Z,2.67
2022-08-07T01:00:37.280Z,2.65
2022-08-07T01:01:43.980Z,2.37
2022-08-07T01:02:46.535Z,2.60
2022-08-07T01:03:55.708Z,2.45
2022-08-07T01:05:01.373Z,2.72
2022-08-07T01:06:04.002Z,2.50
2022-08-07T01:07:05.917Z,2.83
2022-08-07T01:08:09.763Z,2.70
2022-08-07T01:10:04.013Z,2.78
2022-08-07T01:10:34.975Z,2.67
2022-08-07T01:12:24.006Z,2.60
2022-08-07T01:12:58.265Z,2.83
2022-08-07T01:14:00.592Z,2.72
2022-08-07T01:15:04.074Z,2.90
2022-08-07T01:16:06.996Z,2.60
2022-08-07T01:17:09.970Z,2.50
2022-08-07T01:18:17.772Z,2.95
2022-08-07T01:19:20.389Z,2.78
2022-08-07T01:20:22.873Z,2.50
2022-08-07T01:21:32.605Z,2.85
2022-08-07T01:22:46.807Z,2.80
2022-08-07T01:23:55.931Z,2.90
2022-08-07T01:24:58.243Z,2.97
2022-08-07T01:26:00.446Z,2.67
2022-08-07T01:27:02.534Z,2.60
2022-08-07T01:28:04.466Z,2.70
2022-08-07T01:29:06.099Z,2.63
2022-08-07T01:30:10.835Z,2.80
2022-08-07T01:31:15.271Z,2.67
2022-08-07T01:32:18.419Z,2.90
2022-08-07T01:33:20.262Z,2.53
2022-08-07T01:34:30.884Z,2.57
2022-08-07T01:35:53.783Z,2.72
2022-08-07T01:36:58.299Z,2.80
2022-08-07T01:38:00.101Z,3.00
2022-08-07T01:39:01.901Z,2.80
2022-08-07T01:40:14.962Z,3.03
2022-08-07T01:41:26.093Z,2.90
2022-08-07T01:42:39.947Z,3.00
2022-08-07T01:43:50.363Z,2.97
2022-08-07T01:44:52.580Z,3.00
2022-08-07T01:45:55.231Z,2.73
2022-08-07T01:47:01.202Z,2.83
2022-08-07T01:48:30.192Z,2.70
2022-08-07T01:49:32.884Z,2.70
2022-08-07T01:50:36.655Z,2.80
2022-08-07T01:52:02.206Z,3.10
2022-08-07T01:53:00.470Z,2.63
2022-08-07T01:54:12.141Z,2.85
2022-08-07T01:55:24.186Z,2.92
2022-08-07T01:56:30.290Z,2.92
2022-08-07T01:58:05.602Z,3.00
2022-08-07T01:59:06.546Z,3.10
2022-08-07T02:00:13.378Z,3.03
2022-08-07T02:01:25.335Z,3.05
2022-08-07T02:03:19.465Z,3.17
2022-08-07T02:04:12.137Z,3.30
2022-08-07T02:05:48.267Z,3.08
2022-08-07T02:06:39.340Z,2.97
2022-08-07T02:07:50.561Z,3.30
2022-08-07T02:08:54.307Z,2.85
2022-08-07T02:09:58.470Z,3.33
2022-08-07T02:11:00.438Z,2.88
2022-08-07T02:12:17.780Z,3.00
2022-08-07T02:13:23.669Z,3.20
2022-08-07T02:14:47.088Z,3.30
2022-08-07T02:15:53.050Z,2.95
2022-08-07T02:16:54.861Z,3.00
2022-08-07T02:17:56.815Z,2.97
2022-08-07T02:18:58.412Z,3.30
2022-08-07T02:20:06.688Z,2.50
2022-08-07T02:21:16.188Z,2.80
2022-08-07T02:22:21.140Z,3.10
2022-08-07T02:23:27.764Z,2.83
2022-08-07T02:24:29.940Z,3.30
2022-08-07T02:26:31.116Z,2.83
2022-08-07T02:26:56.052Z,3.08
2022-08-07T02:28:01.816Z,2.75
2022-08-07T02:29:13.631Z,3.15
2022-08-07T02:30:15.741Z,2.55
2022-08-07T02:31:28.565Z,3.00
2022-08-07T02:32:30.539Z,2.87
2022-08-07T02:34:01.413Z,2.80
2022-08-07T02:34:54.937Z,2.83
2022-08-07T02:36:30.672Z,2.97
2022-08-07T02:37:21.166Z,3.00
2022-08-07T02:38:28.209Z,2.67
2022-08-07T02:39:42.872Z,3.08
2022-08-07T02:40:56.248Z,2.92
2022-08-07T02:41:58.412Z,3.20
2022-08-07T02:43:01.150Z,3.47
2022-08-07T02:44:09.470Z,3.10
2022-08-07T02:45:57.436Z,3.40
2022-08-07T02:46:36.766Z,3.03
2022-08-07T02:47:45.408Z,3.00
2022-08-07T02:48:55.011Z,2.90
2022-08-07T02:49:59.788Z,3.05
2022-08-07T02:51:07.319Z,3.00
2022-08-07T02:52:40.523Z,3.05
2022-08-07T02:53:46.424Z,3.40
2022-08-07T02:54:48.036Z,3.13
2022-08-07T02:56:03.588Z,3.10
2022-08-07T02:57:06.841Z,3.25
2022-08-07T02:58:11.190Z,2.80
2022-08-07T02:59:15.018Z,3.20
2022-08-07T03:00:16.849Z,2.97
2022-08-07T03:01:35.398Z,3.00
2022-08-07T03:02:37.876Z,2.90
2022-08-07T03:03:56.495Z,2.95
2022-08-07T03:05:06.749Z,3.28
2022-08-07T03:06:16.398Z,3.17
2022-08-07T03:08:05.043Z,2.83
2022-08-07T03:08:48.699Z,3.05
2022-08-07T03:09:53.444Z,2.90
2022-08-07T03:10:55.818Z,3.05
2022-08-07T03:11:57.866Z,3.17
2022-08-07T03:13:04.432Z,3.03
2022-08-07T03:14:06.236Z,2.88
2022-08-07T03:15:08.333Z,3.47
2022-08-07T03:16:10.125Z,3.13
2022-08-07T03:17:14.094Z,3.15
2022-08-07T03:18:17.476Z,2.97
2022-08-07T03:19:21.823Z,3.13
2022-08-07T03:20:23.696Z,2.83
2022-08-07T03:21:25.448Z,2.88
2022-08-07T03:22:29.567Z,2.92
2022-08-07T03:23:34.086Z,2.88
2022-08-07T03:24:53.980Z,3.25
2022-08-07T03:25:59.774Z,3.17
2022-08-07T03:27:03.469Z,2.92
2022-08-07T03:28:09.522Z,2.67
2022-08-07T03:29:37.733Z,2.70
2022-08-07T03:30:39.844Z,2.60
2022-08-07T03:31:43.987Z,3.13
2022-08-07T03:32:49.385Z,3.38
2022-08-07T03:34:01.320Z,3.13
2022-08-07T03:35:17.795Z,3.10
2022-08-07T03:36:21.016Z,2.72
2022-08-07T03:37:28.026Z,2.90
2022-08-07T03:38:34.054Z,3.10
2022-08-07T03:39:56.594Z,2.80
2022-08-07T03:40:58.092Z,2.67
2022-08-07T03:42:00.742Z,2.80
2022-08-07T03:43:02.461Z,3.58
2022-08-07T03:44:04.667Z,2.70
2022-08-07T03:45:07.340Z,3.10
2022-08-07T03:46:10.634Z,2.72
2022-08-07T03:47:20.323Z,2.90
2022-08-07T03:48:24.527Z,3.10
2022-08-07T03:49:27.969Z,3.13
2022-08-07T03:50:29.816Z,3.03
2022-08-07T03:51:47.117Z,2.83
2022-08-07T03:52:49.720Z,2.88
2022-08-07T03:54:33.448Z,2.88
2022-08-07T03:55:13.063Z,3.42
2022-08-07T03:56:33.411Z,3.08
2022-08-07T03:58:08.804Z,2.80
2022-08-07T03:59:09.478Z,2.90
2022-08-07T04:00:14.833Z,3.55
2022-08-07T04:01:17.441Z,3.20
2022-08-07T04:02:19.092Z,3.08
2022-08-07T04:03:21.342Z,2.93
2022-08-07T04:04:23.040Z,2.85
2022-08-07T04:05:28.794Z,2.80
2022-08-07T04:06:43.666Z,3.47
2022-08-07T04:07:46.813Z,3.15
2022-08-07T04:08:50.082Z,2.78
2022-08-07T04:09:52.004Z,3.05
2022-08-07T04:12:20.765Z,3.30
2022-08-07T04:12:23.990Z,3.22
2022-08-07T04:13:30.272Z,3.38
2022-08-07T04:14:51.895Z,2.97
2022-08-07T04:15:54.777Z,3.05
2022-08-07T04:16:58.530Z,2.90
2022-08-07T04:18:30.756Z,3.35
2022-08-07T04:19:51.290Z,2.90
2022-08-07T04:20:54.356Z,3.15
2022-08-07T04:21:59.285Z,3.20
2022-08-07T04:23:07.186Z,3.53
2022-08-07T04:24:30.761Z,3.30
2022-08-07T04:25:39.296Z,3.38
2022-08-07T04:26:43.707Z,3.63
2022-08-07T04:27:53.792Z,2.97
2022-08-07T04:29:02.986Z,3.60
2022-08-07T04:30:13.412Z,3.40
2022-08-07T04:31:38.713Z,3.20
2022-08-07T04:32:48.885Z,3.58
2022-08-07T04:34:00.146Z,3.42
2022-08-07T04:35:06.284Z,3.42
2022-08-07T04:36:09.121Z,3.40
2022-08-07T04:37:20.236Z,3.75
2022-08-07T04:38:22.500Z,3.80
2022-08-07T04:39:26.249Z,4.00
2022-08-07T04:40:30.142Z,4.03
2022-08-07T04:41:36.946Z,3.60
2022-08-07T04:42:38.672Z,4.07
2022-08-07T04:44:10.325Z,3.80
2022-08-07T04:45:08.903Z,4.10
2022-08-07T04:46:26.094Z,3.95
2022-08-07T04:48:29.852Z,4.70
2022-08-07T04:49:37.781Z,4.57
2022-08-07T04:50:52.905Z,4.60
2022-08-07T04:52:05.410Z,4.85
2022-08-07T04:53:40.083Z,4.10
2022-08-07T04:54:38.873Z,4.32
2022-08-07T04:58:10.151Z,4.43
2022-08-07T04:58:13.157Z,4.18
2022-08-07T04:59:17.173Z,4.53
2022-08-07T05:00:56.072Z,4.32
2022-08-07T05:02:00.811Z,4.57
2022-08-07T05:03:17.203Z,4.43
2022-08-07T05:04:50.015Z,4.43
2022-08-07T05:05:59.039Z,4.40
2022-08-07T05:07:27.587Z,3.97
2022-08-07T05:09:00.777Z,4.03
2022-08-07T05:10:28.765Z,4.30
2022-08-07T05:11:57.455Z,3.90
2022-08-07T05:14:44.541Z,3.78
2022-08-07T05:14:52.167Z,3.85
2022-08-07T05:15:57.883Z,4.00
2022-08-07T05:17:00.851Z,3.78
2022-08-07T05:18:10.412Z,3.67
2022-08-07T05:19:13.441Z,3.60
2022-08-07T05:20:17.102Z,4.05
2022-08-07T05:21:59.797Z,3.83
2022-08-07T05:22:41.706Z,3.80
2022-08-07T05:23:48.668Z,4.43
2022-08-07T05:24:51.397Z,3.80
2022-08-07T05:26:11.040Z,3.88
2022-08-07T05:28:02.143Z,4.20
2022-08-07T05:28:37.035Z,3.75
2022-08-07T05:29:51.253Z,4.27
2022-08-07T05:30:55.552Z,4.07
2022-08-07T05:31:59.911Z,3.35
2022-08-07T05:33:02.388Z,3.45
2022-08-07T05:34:11.062Z,3.42
2022-08-07T05:35:13.614Z,3.28
2022-08-07T05:36:22.369Z,3.17
2022-08-07T05:37:26.001Z,3.25
2022-08-07T05:39:00.168Z,3.20
2022-08-07T05:40:17.228Z,2.85
2022-08-07T05:41:14.126Z,3.00
2022-08-07T05:42:33.206Z,3.33
2022-08-07T05:44:01.179Z,3.20
2022-08-07T05:45:14.192Z,3.30
2022-08-07T05:46:19.907Z,3.22
2022-08-07T05:47:38.588Z,3.08
2022-08-07T05:48:58.644Z,3.10
2022-08-07T05:50:01.280Z,3.65
2022-08-07T05:51:03.435Z,3.28
2022-08-07T05:52:05.440Z,3.03
2022-08-07T05:53:07.128Z,3.57
2022-08-07T05:54:44.020Z,3.50
2022-08-07T05:56:03.851Z,3.05
2022-08-07T05:57:07.724Z,3.20
2022-08-07T05:58:10.245Z,2.92
2022-08-07T05:59:17.020Z,3.13
2022-08-07T06:00:18.858Z,2.67
2022-08-07T06:01:22.114Z,2.88
2022-08-07T06:02:28.922Z,2.88
2022-08-07T06:03:53.862Z,2.90
2022-08-07T06:04:55.208Z,2.40
2022-08-07T06:05:57.256Z,2.95
2022-08-07T06:07:04.528Z,3.17
2022-08-07T06:08:14.802Z,3.13
2022-08-07T06:09:44.821Z,2.70
2022-08-07T06:10:51.343Z,2.80
2022-08-07T06:11:56.435Z,3.10
2022-08-07T06:12:58.062Z,3.03
2022-08-07T06:14:13.094Z,2.88
2022-08-07T06:15:21.757Z,2.33
2022-08-07T06:16:40.507Z,2.80
2022-08-07T06:17:53.647Z,2.53
2022-08-07T06:18:56.833Z,3.00
2022-08-07T06:20:04.030Z,2.80
2022-08-07T06:22:14.680Z,2.55
2022-08-07T06:22:27.977Z,2.70
2022-08-07T06:24:38.241Z,2.65
2022-08-07T06:25:00.987Z,2.88
2022-08-07T06:26:03.146Z,2.63
2022-08-07T06:27:05.007Z,3.00
2022-08-07T06:28:08.849Z,2.70
2022-08-07T06:29:10.538Z,2.67
2022-08-07T06:30:32.478Z,3.10
2022-08-07T06:31:47.306Z,2.85
2022-08-07T06:32:52.200Z,3.03
2022-08-07T06:33:54.723Z,3.60
2022-08-07T06:34:56.367Z,2.92
2022-08-07T06:36:12.019Z,2.90
2022-08-07T06:37:17.282Z,3.42
2022-08-07T06:38:22.079Z,3.20
2022-08-07T06:40:18.023Z,3.50
2022-08-07T06:40:52.850Z,3.53
2022-08-07T06:42:03.295Z,3.35
2022-08-07T06:43:05.382Z,3.42
2022-08-07T06:44:22.811Z,3.45
2022-08-07T06:45:26.036Z,3.38
2022-08-07T06:46:31.471Z,4.10
2022-08-07T06:47:48.051Z,3.60
2022-08-07T06:48:58.694Z,3.25
2022-08-07T06:50:00.615Z,3.47
2022-08-07T06:51:08.261Z,3.47
2022-08-07T06:52:11.802Z,3.25
2022-08-07T06:53:49.214Z,3.50
2022-08-07T06:55:31.569Z,3.38
2022-08-07T06:56:00.942Z,3.20
2022-08-07T06:57:03.824Z,3.30
2022-08-07T06:58:10.345Z,5.00
2022-08-07T07:00:12.287Z,3.45
2022-08-07T07:00:42.327Z,3.65
2022-08-07T07:01:50.830Z,3.33
2022-08-07T07:02:57.715Z,3.30
2022-08-07T07:04:28.427Z,3.08
2022-08-07T07:06:03.226Z,3.40
2022-08-07T07:07:00.699Z,3.08
2022-08-07T07:08:06.687Z,3.17
2022-08-07T07:09:18.163Z,3.15
2022-08-07T07:10:35.762Z,2.80
2022-08-07T07:12:08.621Z,2.53
2022-08-07T07:13:04.606Z,2.67
2022-08-07T07:14:08.534Z,2.60
2022-08-07T07:15:26.507Z,2.87
2022-08-07T07:16:45.129Z,2.63
2022-08-07T07:18:05.528Z,2.33
2022-08-07T07:19:41.042Z,2.63
2022-08-07T07:20:42.295Z,2.47
2022-08-07T07:22:04.908Z,2.42
2022-08-07T07:24:10.324Z,2.92
2022-08-07T07:24:28.110Z,2.45
2022-08-07T07:26:34.981Z,1.80
2022-08-07T07:26:52.573Z,2.20
2022-08-07T07:28:29.788Z,2.30
2022-08-07T07:29:56.608Z,2.10
2022-08-07T07:31:08.226Z,2.42
2022-08-07T07:32:12.373Z,2.63
2022-08-07T07:33:15.818Z,2.38
2022-08-07T07:34:19.916Z,2.70
2022-08-07T07:35:22.532Z,2.38
2022-08-07T07:36:32.165Z,2.17
2022-08-07T07:37:49.542Z,2.28
2022-08-07T07:38:56.037Z,2.30
2022-08-07T07:39:59.101Z,1.90
2022-08-07T07:41:03.347Z,1.80
2022-08-07T07:42:13.067Z,2.05
2022-08-07T07:43:18.808Z,2.33
2022-08-07T07:44:29.234Z,2.03
2022-08-07T07:46:53.642Z,2.20
2022-08-07T07:46:55.224Z,1.95
2022-08-07T07:48:00.708Z,1.80
2022-08-07T07:49:09.139Z,1.90
2022-08-07T07:50:35.337Z,2.20
2022-08-07T07:51:58.580Z,1.87
2022-08-07T07:53:01.264Z,2.03
2022-08-07T07:54:03.316Z,1.88
2022-08-07T07:55:05.533Z,1.80
2022-08-07T07:56:07.404Z,2.10
2022-08-07T07:57:10.436Z,1.80
2022-08-07T07:58:13.558Z,1.98
2022-08-07T07:59:15.194Z,1.98
2022-08-07T08:00:21.017Z,1.90
2022-08-07T08:02:02.171Z,2.13
2022-08-07T08:03:04.781Z,1.53
2022-08-07T08:04:11.510Z,1.90
2022-08-07T08:05:15.041Z,1.40
2022-08-07T08:06:16.876Z,1.60
2022-08-07T08:07:20.173Z,1.75
2022-08-07T08:08:35.555Z,1.67
2022-08-07T08:09:51.656Z,1.40
2022-08-07T08:11:00.646Z,1.67
2022-08-07T08:12:06.020Z,1.73
2022-08-07T08:13:10.471Z,1.63
2022-08-07T08:14:19.238Z,1.90
2022-08-07T08:15:27.635Z,1.40
2022-08-07T08:16:50.301Z,1.40
2022-08-07T08:18:18.066Z,1.50
2022-08-07T08:19:18.064Z,1.52
2022-08-07T08:20:38.372Z,1.60
2022-08-07T08:22:03.651Z,1.60
2022-08-07T08:23:27.879Z,1.60
2022-08-07T08:24:51.262Z,1.20
2022-08-07T08:26:18.651Z,1.23
2022-08-07T08:27:23.280Z,1.67
2022-08-07T08:28:38.503Z,1.45
2022-08-07T08:29:54.423Z,1.70
2022-08-07T08:30:59.083Z,1.60
2022-08-07T08:32:17.911Z,1.30
2022-08-07T08:33:22.001Z,1.80
2022-08-07T08:34:26.681Z,1.52
2022-08-07T08:35:39.086Z,1.92
2022-08-07T08:36:46.352Z,1.83
2022-08-07T08:38:01.445Z,1.77
2022-08-07T08:39:05.442Z,1.40
2022-08-07T08:40:11.551Z,1.55
2022-08-07T08:42:03.709Z,1.58
2022-08-07T08:43:17.811Z,1.80
2022-08-07T08:44:29.379Z,1.98
2022-08-07T08:45:58.657Z,1.80
2022-08-07T08:47:10.013Z,1.83
2022-08-07T08:48:38.408Z,1.98
2022-08-07T08:50:05.664Z,1.70
2022-08-07T08:51:22.453Z,1.60
2022-08-07T08:52:35.878Z,1.60
2022-08-07T08:54:11.085Z,1.60
2022-08-07T08:55:54.993Z,1.98
2022-08-07T08:56:52.320Z,1.60
2022-08-07T08:58:13.322Z,1.60
2022-08-07T08:59:41.765Z,1.73
2022-08-07T09:00:48.548Z,1.85
2022-08-07T09:02:09.047Z,2.08
2022-08-07T09:03:15.303Z,2.05
2022-08-07T09:05:01.385Z,2.08
2022-08-07T09:06:11.622Z,2.10
2022-08-07T09:07:45.944Z,2.43
2022-08-07T09:09:01.780Z,2.08
2022-08-07T09:10:39.160Z,1.80
2022-08-07T09:12:30.148Z,2.20
2022-08-07T09:13:56.005Z,1.60
2022-08-07T09:16:25.528Z,1.90
2022-08-07T09:17:00.045Z,2.08
2022-08-07T09:18:38.145Z,2.03
2022-08-07T09:19:51.894Z,2.10
2022-08-07T09:21:01.721Z,1.73
2022-08-07T09:24:29.343Z,1.93
2022-08-07T09:24:31.665Z,1.95
2022-08-07T09:25:43.211Z,2.13
2022-08-07T09:27:12.076Z,1.90
2022-08-07T09:30:00.793Z,1.90
2022-08-07T09:30:04.319Z,1.80
2022-08-07T09:31:16.075Z,1.63
2022-08-07T09:32:31.967Z,1.80
2022-08-07T09:33:56.968Z,1.67
2022-08-07T09:36:05.425Z,2.27
2022-08-07T09:37:02.026Z,2.13
2022-08-07T09:38:12.095Z,2.10
2022-08-07T09:39:54.983Z,1.90
2022-08-07T09:41:05.138Z,1.80
2022-08-07T09:42:23.149Z,2.53
2022-08-07T09:44:03.611Z,2.15
2022-08-07T09:47:51.832Z,2.00
2022-08-07T09:47:51.832Z,1.90
2022-08-07T09:48:50.154Z,2.25
2022-08-07T09:50:20.961Z,2.03
2022-08-07T09:52:10.926Z,2.30
2022-08-07T09:52:51.883Z,2.33
2022-08-07T09:54:02.054Z,1.80
2022-08-07T09:55:29.240Z,2.55
2022-08-07T09:57:06.436Z,1.92
2022-08-07T09:58:32.264Z,2.15
2022-08-07T10:00:01.337Z,2.38
2022-08-07T10:01:50.484Z,2.40
2022-08-07T10:02:57.234Z,2.10
2022-08-07T10:04:06.115Z,2.30
2022-08-07T10:06:00.292Z,1.93
2022-08-07T10:07:24.202Z,2.70
2022-08-07T10:08:51.489Z,2.20
2022-08-07T10:10:21.656Z,2.20
2022-08-07T10:12:01.779Z,2.28
2022-08-07T10:13:54.697Z,2.10
2022-08-07T10:15:18.829Z,2.40
2022-08-07T10:16:59.610Z,2.15
2022-08-07T10:18:11.925Z,2.20
2022-08-07T10:19:37.579Z,2.53
2022-08-07T10:21:00.431Z,2.70
2022-08-07T10:22:36.855Z,2.22
2022-08-07T10:24:10.157Z,2.17
2022-08-07T10:25:42.731Z,2.75
2022-08-07T10:27:06.739Z,2.83
2022-08-07T10:28:26.011Z,2.30
2022-08-07T10:30:06.543Z,2.50
2022-08-07T10:31:31.384Z,2.65
2022-08-07T10:33:14.842Z,2.63
2022-08-07T10:34:27.268Z,2.53
2022-08-07T10:35:55.567Z,2.40
2022-08-07T10:37:18.797Z,2.42
2022-08-07T10:38:49.273Z,2.53
2022-08-07T10:40:09.033Z,2.70
2022-08-07T10:41:51.985Z,2.80
2022-08-07T10:43:06.503Z,2.40
2022-08-07T10:44:16.243Z,2.80
2022-08-07T10:45:44.523Z,2.47
2022-08-07T10:47:00.082Z,2.40
2022-08-07T10:48:09.697Z,2.70
2022-08-07T10:49:49.385Z,2.80
2022-08-07T10:50:55.120Z,2.70
2022-08-07T10:52:13.752Z,2.60
2022-08-07T10:53:22.617Z,3.00
2022-08-07T10:55:00.938Z,2.80
2022-08-07T10:56:31.421Z,2.45
2022-08-07T10:57:51.778Z,2.53
2022-08-07T10:59:21.480Z,2.60
2022-08-07T11:00:39.330Z,2.58
2022-08-07T11:02:12.402Z,2.43
2022-08-07T11:03:52.580Z,2.63
2022-08-07T11:05:14.037Z,2.40
2022-08-07T11:06:29.233Z,3.03
2022-08-07T11:07:59.327Z,2.60
2022-08-07T11:09:11.681Z,2.85
2022-08-07T11:11:06.226Z,2.72
2022-08-07T11:12:19.144Z,3.10
2022-08-07T11:14:43.607Z,2.78
2022-08-07T11:15:14.677Z,3.15
2022-08-07T11:16:20.889Z,2.87
2022-08-07T11:17:45.090Z,2.80
2022-08-07T11:18:53.293Z,2.70
2022-08-07T11:20:09.792Z,2.90
2022-08-07T11:21:31.932Z,2.90
2022-08-07T11:22:46.292Z,2.60
2022-08-07T11:24:14.301Z,2.90
2022-08-07T11:25:26.185Z,2.90
2022-08-07T11:26:53.882Z,3.03
2022-08-07T11:28:17.552Z,2.85
2022-08-07T11:29:41.820Z,2.93
2022-08-07T11:31:08.801Z,2.80
2022-08-07T11:32:31.146Z,3.15
2022-08-07T11:33:59.853Z,3.05
2022-08-07T11:35:25.181Z,2.83
2022-08-07T11:36:53.228Z,2.65
2022-08-07T11:38:12.614Z,2.92
2022-08-07T11:40:03.429Z,2.83
2022-08-07T11:41:22.390Z,2.70
2022-08-07T11:43:08.260Z,3.08
2022-08-07T11:44:23.559Z,2.77
2022-08-07T11:45:50.007Z,2.63
2022-08-07T11:47:04.742Z,2.90
2022-08-07T11:48:29.550Z,3.10
2022-08-07T11:50:30.696Z,3.17
2022-08-07T11:51:58.582Z,3.08
2022-08-07T11:54:00.802Z,3.08
2022-08-07T11:56:18.475Z,2.70
2022-08-07T11:58:00.065Z,2.67
2022-08-07T11:58:51.116Z,3.22
2022-08-07T12:00:19.040Z,2.80
2022-08-07T12:01:27.752Z,3.17
2022-08-07T12:03:45.199Z,3.00
2022-08-07T12:05:02.007Z,2.97
2022-08-07T12:06:39.920Z,3.03
2022-08-07T12:08:25.879Z,3.08
2022-08-07T12:10:08.132Z,2.85
2022-08-07T12:11:21.190Z,2.90
2022-08-07T12:12:28.708Z,3.13
2022-08-07T12:13:39.207Z,2.83
2022-08-07T12:14:51.496Z,2.63
2022-08-07T12:16:06.858Z,3.17
2022-08-07T12:17:19.751Z,2.80
2022-08-07T12:18:29.768Z,2.70
2022-08-07T12:20:18.677Z,2.90
2022-08-07T12:22:37.987Z,2.97
2022-08-07T12:24:04.762Z,2.95
2022-08-07T12:26:02.977Z,3.00
2022-08-07T12:26:58.840Z,2.80
2022-08-07T12:28:05.857Z,3.20
2022-08-07T12:29:37.908Z,3.07
2022-08-07T12:30:46.710Z,3.00
2022-08-07T12:32:04.778Z,3.03
2022-08-07T12:33:23.109Z,3.13
2022-08-07T12:34:30.558Z,3.42
2022-08-07T12:35:36.271Z,3.30
2022-08-07T12:36:38.104Z,3.35
2022-08-07T12:38:10.017Z,2.72
2022-08-07T12:39:38.799Z,3.30
2022-08-07T12:40:47.596Z,2.83
2022-08-07T12:41:52.158Z,2.90
2022-08-07T12:42:57.216Z,2.77
2022-08-07T12:44:03.874Z,3.30
2022-08-07T12:45:13.732Z,2.85
2022-08-07T12:46:26.369Z,2.90
2022-08-07T12:47:37.446Z,3.40
2022-08-07T12:48:52.132Z,3.00
2022-08-07T12:50:38.294Z,2.88
2022-08-07T12:52:12.435Z,3.10
2022-08-07T12:53:17.334Z,2.80
2022-08-07T12:54:38.448Z,3.20
2022-08-07T12:56:03.670Z,3.00
2022-08-07T12:57:09.346Z,3.03
2022-08-07T12:58:14.155Z,3.00
2022-08-07T12:59:20.303Z,3.08
2022-08-07T13:00:32.525Z,2.85
2022-08-07T13:01:58.924Z,2.80
2022-08-07T13:03:23.074Z,2.83
2022-08-07T13:04:57.763Z,3.00
2022-08-07T13:06:21.571Z,3.15
2022-08-07T13:08:14.392Z,3.10
2022-08-07T13:10:21.572Z,3.00
2022-08-07T13:10:51.652Z,3.05
2022-08-07T13:12:10.104Z,3.17
2022-08-07T13:13:48.443Z,2.88
2022-08-07T13:15:09.534Z,2.65
2022-08-07T13:16:17.703Z,2.97
2022-08-07T13:17:43.718Z,2.80
2022-08-07T13:18:57.130Z,2.70
2022-08-07T13:20:00.196Z,2.45
2022-08-07T13:21:07.208Z,2.90
2022-08-07T13:22:27.869Z,2.60
2022-08-07T13:24:01.503Z,2.70
2022-08-07T13:25:15.235Z,2.70
2022-08-07T13:26:34.195Z,2.83
2022-08-07T13:28:12.707Z,2.50
2022-08-07T13:29:15.799Z,2.70
2022-08-07T13:30:18.851Z,2.67
2022-08-07T13:31:25.286Z,2.30
2022-08-07T13:32:42.278Z,2.50
2022-08-07T13:34:32.787Z,2.10
2022-08-07T13:36:00.550Z,2.33
2022-08-07T13:36:55.541Z,2.55
2022-08-07T13:38:20.306Z,2.47
2022-08-07T13:40:36.155Z,2.58
2022-08-07T13:41:27.980Z,2.38
2022-08-07T13:42:30.996Z,2.45
2022-08-07T13:43:34.248Z,2.53
2022-08-07T13:44:37.685Z,2.40
2022-08-07T13:46:20.839Z,2.75
2022-08-07T13:47:09.429Z,2.53
2022-08-07T13:48:20.590Z,2.53
2022-08-07T13:50:34.121Z,2.78
2022-08-07T13:51:01.433Z,2.22
2022-08-07T13:52:31.656Z,2.65
2022-08-07T13:53:59.651Z,3.00
2022-08-07T13:55:00.744Z,3.00
2022-08-07T13:56:02.461Z,2.47
2022-08-07T13:57:09.703Z,2.30
2022-08-07T13:58:34.714Z,2.25
2022-08-07T13:59:36.438Z,2.90
2022-08-07T14:00:53.986Z,2.83
2022-08-07T14:02:10.224Z,2.40
2022-08-07T14:03:13.831Z,2.70
2022-08-07T14:04:36.085Z,2.67
2022-08-07T14:05:38.576Z,2.83
2022-08-07T14:06:41.963Z,2.40
2022-08-07T14:08:00.722Z,3.05
2022-08-07T14:09:04.508Z,2.80
2022-08-07T14:10:21.768Z,2.30
2022-08-07T14:11:29.155Z,2.80
2022-08-07T14:12:55.703Z,2.67
2022-08-07T14:14:07.640Z,2.58
2022-08-07T14:15:11.052Z,2.80
2022-08-07T14:16:16.205Z,2.72
2022-08-07T14:18:12.887Z,2.60
2022-08-07T14:18:50.016Z,2.30
2022-08-07T14:20:43.775Z,2.35
2022-08-07T14:22:02.260Z,2.47
2022-08-07T14:23:31.365Z,2.40
2022-08-07T14:24:41.719Z,2.20
2022-08-07T14:25:45.952Z,2.87
2022-08-07T14:26:56.700Z,2.38
2022-08-07T14:28:10.895Z,3.05
2022-08-07T14:30:05.309Z,2.60
2022-08-07T14:30:46.992Z,2.40
2022-08-07T14:31:57.780Z,2.58
2022-08-07T14:33:04.451Z,2.50
2022-08-07T14:34:07.247Z,2.50
2022-08-07T14:35:45.716Z,2.50
2022-08-07T14:36:41.870Z,2.27
2022-08-07T14:37:44.514Z,2.73
2022-08-07T14:39:06.505Z,2.47
2022-08-07T14:40:15.700Z,2.30
2022-08-07T14:42:20.331Z,2.00
2022-08-07T14:43:55.966Z,2.20
2022-08-07T14:44:22.135Z,2.30
2022-08-07T14:45:49.382Z,2.40
2022-08-07T14:47:08.549Z,1.98
2022-08-07T14:48:19.725Z,2.45
2022-08-07T14:49:57.478Z,2.30
2022-08-07T14:50:48.905Z,2.30
2022-08-07T14:52:04.481Z,2.25
2022-08-07T14:53:12.027Z,2.10
2022-08-07T14:54:31.675Z,2.22
2022-08-07T14:55:55.334Z,3.13
2022-08-07T14:56:58.817Z,2.40
2022-08-07T14:58:05.017Z,6.25
2022-08-07T14:59:13.693Z,4.85
2022-08-07T15:00:33.141Z,2.20
2022-08-07T15:02:59.147Z,2.50
2022-08-07T15:04:05.694Z,2.28
2022-08-07T15:05:20.482Z,2.30
2022-08-07T15:06:25.576Z,2.17
2022-08-07T15:08:55.030Z,2.40
2022-08-07T15:10:01.443Z,2.63
2022-08-07T15:12:36.710Z,2.45
2022-08-07T15:13:06.525Z,2.22
2022-08-07T15:13:56.388Z,2.70
2022-08-07T15:15:09.311Z,2.60
2022-08-07T15:16:35.111Z,2.65
2022-08-07T15:17:55.193Z,2.60
2022-08-07T15:18:57.646Z,2.50
2022-08-07T15:21:58.804Z,3.13
2022-08-07T15:22:54.616Z,2.55
2022-08-07T15:25:14.311Z,2.70
2022-08-07T15:26:55.818Z,2.30
2022-08-07T15:30:10.103Z,2.40
2022-08-07T15:31:04.485Z,2.67
2022-08-07T15:32:07.565Z,2.30
2022-08-07T15:34:50.184Z,2.50
2022-08-07T15:36:04.794Z,2.30
2022-08-07T15:37:07.238Z,2.33
2022-08-07T15:38:17.904Z,2.65
2022-08-07T15:39:56.900Z,2.80
2022-08-07T15:41:00.387Z,2.20
2022-08-07T15:44:01.415Z,2.78
2022-08-07T15:45:04.843Z,2.35
2022-08-07T15:46:31.857Z,2.45
2022-08-07T15:48:01.050Z,2.60
2022-08-07T15:50:37.445Z,2.50
2022-08-07T15:53:02.518Z,2.50
2022-08-07T15:54:06.681Z,2.67
2022-08-07T15:55:15.517Z,2.28
2022-08-07T15:56:17.195Z,2.47
2022-08-07T15:57:39.127Z,2.45
2022-08-07T15:58:44.553Z,2.33
2022-08-07T15:59:54.118Z,2.22
2022-08-07T16:00:58.260Z,2.40
2022-08-07T16:02:01.866Z,2.72
2022-08-07T16:03:21.361Z,2.33
2022-08-07T16:04:33.680Z,2.40
2022-08-07T16:05:36.147Z,2.30
2022-08-07T16:06:51.087Z,2.35
2022-08-07T16:08:30.356Z,2.55
2022-08-07T16:09:45.133Z,2.90
2022-08-07T16:10:48.883Z,2.33
2022-08-07T16:12:28.786Z,2.72
2022-08-07T16:13:58.695Z,2.88
2022-08-07T16:15:05.797Z,2.72
2022-08-07T16:16:43.141Z,2.40
2022-08-07T16:18:01.762Z,2.50
2022-08-07T16:19:42.424Z,2.33
2022-08-07T16:21:57.076Z,2.40
2022-08-07T16:22:55.105Z,2.25
2022-08-07T16:24:34.498Z,2.55
2022-08-07T16:25:56.210Z,2.15
2022-08-07T16:27:40.838Z,2.05
2022-08-07T16:30:06.723Z,2.15
2022-08-07T16:30:30.460Z,2.08
2022-08-07T16:32:06.937Z,2.58
2022-08-07T16:34:01.921Z,2.40
2022-08-07T16:34:55.298Z,2.57
2022-08-07T16:36:19.812Z,2.40
2022-08-07T16:38:05.267Z,2.63
2022-08-07T16:39:40.446Z,2.58
2022-08-07T16:41:15.838Z,2.20
2022-08-07T16:42:43.076Z,2.40
2022-08-07T16:44:03.701Z,2.30
2022-08-07T16:46:47.224Z,2.47
2022-08-07T16:47:50.886Z,2.42
2022-08-07T16:48:58.551Z,2.17
2022-08-07T16:50:35.381Z,2.60
2022-08-07T16:52:51.300Z,2.00